createdAt,value
2019-02-25T00:01:40.036Z,1014.09
2019-02-25T00:03:40.281Z,1014.17
2019-02-25T00:05:39.953Z,1013.90
2019-02-25T00:07:39.968Z,1013.93
2019-02-25T00:09:40.186Z,1013.84
2019-02-25T00:11:39.994Z,1013.78
2019-02-25T00:13:40.009Z,1014.11
2019-02-25T00:15:40.523Z,1013.78
2019-02-25T00:17:40.018Z,1013.84
2019-02-25T00:19:40.036Z,1013.82
2019-02-25T00:21:39.989Z,1014.05
2019-02-25T00:23:40.159Z,1013.67
2019-02-25T00:25:39.998Z,1014.03
2019-02-25T00:27:40.182Z,1013.99
2019-02-25T00:29:40.200Z,1013.95
2019-02-25T00:31:40.041Z,1014.21
2019-02-25T00:33:40.266Z,1014.09
2019-02-25T00:35:40.025Z,1013.62
2019-02-25T00:37:39.977Z,1013.89
2019-02-25T00:39:40.153Z,1013.92
2019-02-25T00:41:41.122Z,1013.75
2019-02-25T00:43:40.114Z,1014.08
2019-02-25T00:45:39.968Z,1013.98
2019-02-25T00:47:40.191Z,1014.06
2019-02-25T00:49:40.202Z,1014.02
2019-02-25T00:51:40.118Z,1014.10
2019-02-25T00:53:40.232Z,1014.32
2019-02-25T00:55:39.990Z,1014.07
2019-02-25T00:57:40.256Z,1014.01
2019-02-25T00:59:40.264Z,1014.20
2019-02-25T01:01:40.480Z,1014.68
2019-02-25T01:03:40.112Z,1014.25
2019-02-25T01:05:40.089Z,1014.40
2019-02-25T01:07:40.109Z,1013.89
2019-02-25T01:09:40.280Z,1014.29
2019-02-25T01:11:40.338Z,1014.34
2019-02-25T01:13:40.233Z,1014.50
2019-02-25T01:15:40.337Z,1014.42
2019-02-25T01:17:40.264Z,1014.45
2019-02-25T01:19:40.173Z,1014.13
2019-02-25T01:21:40.288Z,1014.05
2019-02-25T01:23:40.299Z,1014.23
2019-02-25T01:25:40.383Z,1014.44
2019-02-25T01:27:40.321Z,1014.19
2019-02-25T01:29:40.042Z,1014.48
2019-02-25T01:31:40.042Z,1014.59
2019-02-25T01:33:40.180Z,1014.47
2019-02-25T01:35:40.287Z,1014.58
2019-02-25T01:37:40.298Z,1014.39
2019-02-25T01:39:40.397Z,1014.42
2019-02-25T01:41:40.609Z,1014.43
2019-02-25T01:43:40.204Z,1014.39
2019-02-25T01:45:40.410Z,1014.08
2019-02-25T01:47:40.435Z,1014.25
2019-02-25T01:49:40.031Z,1014.45
2019-02-25T01:51:40.421Z,1014.36
2019-02-25T01:53:40.168Z,1014.44
2019-02-25T01:55:40.121Z,1014.13
2019-02-25T01:57:40.170Z,1014.21
2019-02-25T01:59:40.328Z,1014.16
2019-02-25T02:01:40.319Z,1014.37
2019-02-25T02:03:40.531Z,1014.12
2019-02-25T02:05:40.244Z,1014.23
2019-02-25T02:07:40.352Z,1013.87
2019-02-25T02:09:40.361Z,1014.18
2019-02-25T02:11:40.153Z,1014.02
2019-02-25T02:13:40.193Z,1013.83
2019-02-25T02:15:40.306Z,1014.08
2019-02-25T02:17:40.052Z,1013.96
2019-02-25T02:19:40.322Z,1014.18
2019-02-25T02:21:40.428Z,1013.98
2019-02-25T02:23:40.238Z,1014.18
2019-02-25T02:25:40.456Z,1014.33
2019-02-25T02:27:40.436Z,1014.40
2019-02-25T02:29:40.278Z,1014.23
2019-02-25T02:31:40.223Z,1014.41
2019-02-25T02:33:40.333Z,1014.09
2019-02-25T02:35:40.217Z,1014.14
2019-02-25T02:37:40.065Z,1014.03
2019-02-25T02:39:40.329Z,1014.11
2019-02-25T02:41:40.058Z,1014.12
2019-02-25T02:43:40.358Z,1013.98
2019-02-25T02:45:40.370Z,1014.23
2019-02-25T02:47:40.383Z,1013.99
2019-02-25T02:49:40.286Z,1014.04
2019-02-25T02:51:40.913Z,1013.73
2019-02-25T02:53:40.420Z,1014.28
2019-02-25T02:55:40.233Z,1013.75
2019-02-25T02:57:40.341Z,1014.24
2019-02-25T02:59:40.424Z,1014.19
2019-02-25T03:01:40.396Z,1014.10
2019-02-25T03:03:40.675Z,1014.31
2019-02-25T03:05:40.281Z,1014.13
2019-02-25T03:07:40.168Z,1014.07
2019-02-25T03:09:40.402Z,1014.16
2019-02-25T03:11:40.159Z,1014.17
2019-02-25T03:13:40.430Z,1014.19
2019-02-25T03:15:40.295Z,1014.10
2019-02-25T03:17:40.351Z,1014.14
2019-02-25T03:19:40.359Z,1014.11
2019-02-25T03:21:40.678Z,1014.00
2019-02-25T03:23:40.479Z,1013.80
2019-02-25T03:25:40.701Z,1014.28
2019-02-25T03:27:40.305Z,1013.80
2019-02-25T03:29:40.520Z,1013.68
2019-02-25T03:31:40.534Z,1013.93
2019-02-25T03:33:40.298Z,1013.67
2019-02-25T03:35:40.350Z,1014.26
2019-02-25T03:37:40.260Z,1013.71
2019-02-25T03:39:40.475Z,1014.22
2019-02-25T03:41:40.281Z,1013.72
2019-02-25T03:43:40.148Z,1013.93
2019-02-25T03:45:40.614Z,1014.16
2019-02-25T03:47:40.622Z,1014.07
2019-02-25T03:49:40.536Z,1013.70
2019-02-25T03:51:40.426Z,1014.14
2019-02-25T03:53:40.427Z,1013.64
2019-02-25T03:55:40.205Z,1013.81
2019-02-25T03:57:40.474Z,1013.27
2019-02-25T03:59:40.490Z,1013.77
2019-02-25T04:01:40.297Z,1014.12
2019-02-25T04:03:40.493Z,1013.73
2019-02-25T04:05:40.422Z,1014.34
2019-02-25T04:07:40.536Z,1013.99
2019-02-25T04:09:40.445Z,1013.38
2019-02-25T04:11:40.555Z,1013.50
2019-02-25T04:13:40.374Z,1013.81
2019-02-25T04:15:40.272Z,1013.95
2019-02-25T04:17:40.386Z,1013.96
2019-02-25T04:19:40.498Z,1014.15
2019-02-25T04:21:40.713Z,1014.10
2019-02-25T04:23:40.490Z,1014.12
2019-02-25T04:25:40.329Z,1013.99
2019-02-25T04:27:40.477Z,1013.73
2019-02-25T04:29:40.353Z,1013.81
2019-02-25T04:31:40.365Z,1013.96
2019-02-25T04:33:40.566Z,1014.02
2019-02-25T04:35:40.355Z,1014.08
2019-02-25T04:37:40.355Z,1013.83
2019-02-25T04:39:40.427Z,1014.21
2019-02-25T04:41:40.427Z,1014.35
2019-02-25T04:43:40.641Z,1014.13
2019-02-25T04:45:40.191Z,1014.26
2019-02-25T04:47:43.277Z,1014.04
2019-02-25T04:49:40.467Z,1013.83
2019-02-25T04:51:40.279Z,1014.35
2019-02-25T04:53:40.451Z,1014.24
2019-02-25T04:55:40.482Z,1014.00
2019-02-25T04:57:40.464Z,1013.86
2019-02-25T04:59:40.570Z,1013.48
2019-02-25T05:01:40.279Z,1013.70
2019-02-25T05:03:40.554Z,1014.04
2019-02-25T05:05:40.557Z,1014.19
2019-02-25T05:07:40.378Z,1013.77
2019-02-25T05:09:40.590Z,1014.19
2019-02-25T05:11:40.601Z,1014.03
2019-02-25T05:13:40.403Z,1013.91
2019-02-25T05:15:40.631Z,1013.80
2019-02-25T05:17:40.224Z,1014.23
2019-02-25T05:19:40.546Z,1013.78
2019-02-25T05:21:40.551Z,1013.82
2019-02-25T05:23:40.253Z,1013.81
2019-02-25T05:25:40.321Z,1014.04
2019-02-25T05:27:40.375Z,1014.22
2019-02-25T05:29:40.597Z,1013.81
2019-02-25T05:31:40.413Z,1013.92
2019-02-25T05:33:40.820Z,1013.98
2019-02-25T05:35:40.426Z,1013.84
2019-02-25T05:37:40.229Z,1013.78
2019-02-25T05:39:40.561Z,1014.01
2019-02-25T05:41:40.222Z,1014.41
2019-02-25T05:43:40.472Z,1014.17
2019-02-25T05:45:40.241Z,1014.03
2019-02-25T05:47:40.502Z,1014.17
2019-02-25T05:49:40.436Z,1014.18
2019-02-25T05:51:40.523Z,1013.73
2019-02-25T05:53:40.361Z,1014.46
2019-02-25T05:55:40.858Z,1014.24
2019-02-25T05:57:40.530Z,1013.90
2019-02-25T05:59:40.470Z,1014.18
2019-02-25T06:01:40.370Z,1014.01
2019-02-25T06:03:40.590Z,1014.02
2019-02-25T06:05:40.595Z,1013.93
2019-02-25T06:07:40.311Z,1013.61
2019-02-25T06:09:40.521Z,1013.80
2019-02-25T06:11:40.539Z,1014.26
2019-02-25T06:13:40.339Z,1013.99
2019-02-25T06:15:40.663Z,1014.01
2019-02-25T06:17:40.779Z,1014.12
2019-02-25T06:19:40.488Z,1013.68
2019-02-25T06:21:40.557Z,1014.05
2019-02-25T06:23:40.398Z,1014.06
2019-02-25T06:25:40.409Z,1014.00
2019-02-25T06:27:41.034Z,1013.77
2019-02-25T06:29:40.428Z,1013.74
2019-02-25T06:31:40.549Z,1013.95
2019-02-25T06:33:40.705Z,1014.10
2019-02-25T06:35:40.478Z,1013.82
2019-02-25T06:37:40.988Z,1014.09
2019-02-25T06:39:40.588Z,1013.98
2019-02-25T06:41:40.351Z,1013.53
2019-02-25T06:43:40.360Z,1014.07
2019-02-25T06:45:40.623Z,1014.03
2019-02-25T06:47:40.437Z,1013.94
2019-02-25T06:49:40.652Z,1014.28
2019-02-25T06:51:40.584Z,1014.10
2019-02-25T06:53:40.613Z,1014.40
2019-02-25T06:55:40.892Z,1013.92
2019-02-25T06:57:40.697Z,1014.30
2019-02-25T06:59:40.705Z,1013.97
2019-02-25T07:01:40.614Z,1013.97
2019-02-25T07:03:40.578Z,1014.29
2019-02-25T07:05:40.331Z,1014.34
2019-02-25T07:07:40.347Z,1013.87
2019-02-25T07:09:40.357Z,1013.90
2019-02-25T07:11:40.437Z,1013.96
2019-02-25T07:13:40.385Z,1014.20
2019-02-25T07:15:40.896Z,1013.91
2019-02-25T07:17:40.713Z,1014.02
2019-02-25T07:19:40.664Z,1014.00
2019-02-25T07:21:40.743Z,1013.94
2019-02-25T07:23:40.440Z,1013.89
2019-02-25T07:25:40.338Z,1013.80
2019-02-25T07:27:41.971Z,1013.79
2019-02-25T07:29:40.571Z,1013.94
2019-02-25T07:31:40.489Z,1013.98
2019-02-25T07:33:40.534Z,1013.85
2019-02-25T07:35:40.616Z,1013.94
2019-02-25T07:37:40.727Z,1013.93
2019-02-25T07:39:40.735Z,1014.22
2019-02-25T07:41:40.739Z,1013.76
2019-02-25T07:43:40.812Z,1013.84
2019-02-25T07:45:40.772Z,1013.92
2019-02-25T07:47:40.691Z,1014.07
2019-02-25T07:49:40.483Z,1014.27
2019-02-25T07:51:40.474Z,1013.88
2019-02-25T07:53:40.594Z,1013.69
2019-02-25T07:55:40.357Z,1013.77
2019-02-25T07:57:40.633Z,1013.95
2019-02-25T07:59:40.850Z,1013.78
2019-02-25T08:01:40.447Z,1014.10
2019-02-25T08:03:40.671Z,1014.11
2019-02-25T08:05:40.468Z,1013.89
2019-02-25T08:07:40.484Z,1013.62
2019-02-25T08:09:40.452Z,1014.11
2019-02-25T08:11:40.725Z,1013.95
2019-02-25T08:13:40.683Z,1014.08
2019-02-25T08:15:40.718Z,1014.19
2019-02-25T08:17:40.657Z,1014.33
2019-02-25T08:19:40.601Z,1014.24
2019-02-25T08:21:40.482Z,1014.05
2019-02-25T08:23:40.782Z,1014.11
2019-02-25T08:25:40.597Z,1014.01
2019-02-25T08:27:40.608Z,1014.12
2019-02-25T08:29:40.820Z,1014.24
2019-02-25T08:31:40.979Z,1013.98
2019-02-25T08:33:40.483Z,1014.20
2019-02-25T08:35:40.579Z,1014.51
2019-02-25T08:37:40.667Z,1013.99
2019-02-25T08:39:40.652Z,1013.80
2019-02-25T08:41:40.638Z,1014.34
2019-02-25T08:43:40.698Z,1014.19
2019-02-25T08:45:40.544Z,1014.36
2019-02-25T08:47:40.724Z,1014.15
2019-02-25T08:49:40.669Z,1014.08
2019-02-25T08:51:40.940Z,1014.23
2019-02-25T08:53:40.848Z,1014.05
2019-02-25T08:55:40.773Z,1014.10
2019-02-25T08:57:40.794Z,1013.93
2019-02-25T08:59:40.714Z,1013.93
2019-02-25T09:01:40.593Z,1014.00
2019-02-25T09:03:40.694Z,1013.77
2019-02-25T09:05:40.924Z,1013.92
2019-02-25T09:07:42.568Z,1013.94
2019-02-25T09:09:40.916Z,1014.01
2019-02-25T09:11:40.646Z,1014.10
2019-02-25T09:13:41.277Z,1013.90
2019-02-25T09:15:40.633Z,1013.72
2019-02-25T09:17:40.680Z,1013.94
2019-02-25T09:19:40.699Z,1013.94
2019-02-25T09:21:40.608Z,1013.77
2019-02-25T09:23:40.752Z,1013.84
2019-02-25T09:25:40.751Z,1013.92
2019-02-25T09:27:40.867Z,1013.86
2019-02-25T09:29:41.061Z,1013.47
2019-02-25T09:31:40.869Z,1013.70
2019-02-25T09:33:41.027Z,1013.85
2019-02-25T09:35:40.837Z,1013.94
2019-02-25T09:37:40.698Z,1013.98
2019-02-25T09:39:40.703Z,1013.85
2019-02-25T09:41:40.744Z,1013.82
2019-02-25T09:43:40.731Z,1013.95
2019-02-25T09:45:40.910Z,1013.73
2019-02-25T09:47:40.867Z,1013.98
2019-02-25T09:49:40.872Z,1013.85
2019-02-25T09:51:40.873Z,1013.99
2019-02-25T09:53:40.699Z,1013.84
2019-02-25T09:55:40.802Z,1013.95
2019-02-25T09:57:40.916Z,1013.92
2019-02-25T09:59:41.023Z,1013.61
2019-02-25T10:01:40.738Z,1013.91
2019-02-25T10:03:40.840Z,1013.91
2019-02-25T10:05:40.856Z,1013.88
2019-02-25T10:07:40.666Z,1013.88
2019-02-25T10:09:40.890Z,1013.71
2019-02-25T10:11:41.003Z,1013.63
2019-02-25T10:13:40.918Z,1013.80
2019-02-25T10:15:40.961Z,1013.50
2019-02-25T10:17:40.725Z,1013.72
2019-02-25T10:19:40.732Z,1013.58
2019-02-25T10:21:40.826Z,1013.82
2019-02-25T10:23:40.707Z,1013.88
2019-02-25T10:25:40.764Z,1013.80
2019-02-25T10:27:40.886Z,1013.65
2019-02-25T10:29:40.684Z,1013.82
2019-02-25T10:31:41.693Z,1013.70
2019-02-25T10:33:40.921Z,1013.68
2019-02-25T10:35:40.879Z,1013.81
2019-02-25T10:37:41.425Z,1013.86
2019-02-25T10:39:41.661Z,1013.70
2019-02-25T10:41:41.133Z,1013.93
2019-02-25T10:43:40.855Z,1013.60
2019-02-25T10:45:41.571Z,1013.76
2019-02-25T10:47:42.053Z,1013.58
2019-02-25T10:49:40.705Z,1013.83
2019-02-25T10:51:41.208Z,1013.90
2019-02-25T10:53:40.833Z,1013.92
2019-02-25T10:55:44.471Z,1013.76
2019-02-25T10:57:40.909Z,1013.55
2019-02-25T10:59:41.487Z,1013.78
2019-02-25T11:01:41.433Z,1013.61
2019-02-25T11:03:40.892Z,1013.91
2019-02-25T11:05:41.314Z,1013.82
2019-02-25T11:07:42.037Z,1013.65
2019-02-25T11:09:41.944Z,1013.62
2019-02-25T11:11:40.724Z,1013.93
2019-02-25T11:13:41.044Z,1013.75
2019-02-25T11:15:42.388Z,1013.79
2019-02-25T11:17:40.932Z,1013.95
2019-02-25T11:19:41.084Z,1014.09
2019-02-25T11:21:42.219Z,1013.81
2019-02-25T11:23:42.907Z,1013.56
2019-02-25T11:25:40.880Z,1013.70
2019-02-25T11:27:41.336Z,1013.73
2019-02-25T11:29:42.141Z,1013.77
2019-02-25T11:31:41.236Z,1013.74
2019-02-25T11:33:40.747Z,1013.64
2019-02-25T11:35:41.625Z,1013.73
2019-02-25T11:37:40.714Z,1013.58
2019-02-25T11:39:40.921Z,1013.70
2019-02-25T11:41:41.134Z,1013.58
2019-02-25T11:43:40.937Z,1013.32
2019-02-25T11:45:40.955Z,1013.58
2019-02-25T11:47:41.955Z,1013.30
2019-02-25T11:49:41.053Z,1013.78
2019-02-25T11:51:40.957Z,1013.69
2019-02-25T11:53:40.762Z,1013.68
2019-02-25T11:55:40.985Z,1013.27
2019-02-25T11:57:40.709Z,1013.44
2019-02-25T11:59:41.111Z,1013.70
2019-02-25T12:01:40.852Z,1013.67
2019-02-25T12:03:41.339Z,1013.24
2019-02-25T12:05:40.942Z,1013.87
2019-02-25T12:07:40.898Z,1013.56
2019-02-25T12:09:41.017Z,1013.54
2019-02-25T12:11:40.876Z,1013.34
2019-02-25T12:13:41.094Z,1012.78
2019-02-25T12:15:40.896Z,1013.30
2019-02-25T12:17:40.804Z,1013.53
2019-02-25T12:19:40.823Z,1013.39
2019-02-25T12:21:42.377Z,1013.22
2019-02-25T12:23:40.758Z,1013.31
2019-02-25T12:25:40.944Z,1013.16
2019-02-25T12:27:41.061Z,1013.47
2019-02-25T12:29:41.162Z,1013.34
2019-02-25T12:31:40.953Z,1013.24
2019-02-25T12:33:41.214Z,1013.28
2019-02-25T12:35:41.113Z,1013.42
2019-02-25T12:37:41.128Z,1013.15
2019-02-25T12:39:41.046Z,1013.21
2019-02-25T12:41:43.835Z,1013.15
2019-02-25T12:43:41.060Z,1013.28
2019-02-25T12:45:41.070Z,1012.97
2019-02-25T12:47:41.190Z,1013.21
2019-02-25T12:49:40.891Z,1013.16
2019-02-25T12:51:41.089Z,1013.04
2019-02-25T12:53:41.061Z,1013.07
2019-02-25T12:55:41.024Z,1013.06
2019-02-25T12:57:41.152Z,1013.14
2019-02-25T12:59:41.259Z,1013.12
2019-02-25T13:01:41.271Z,1012.99
2019-02-25T13:03:41.444Z,1012.99
2019-02-25T13:05:41.109Z,1012.83
2019-02-25T13:07:41.005Z,1012.94
2019-02-25T13:09:41.317Z,1013.23
2019-02-25T13:11:41.367Z,1012.96
2019-02-25T13:13:41.338Z,1012.50
2019-02-25T13:15:41.141Z,1012.85
2019-02-25T13:17:41.365Z,1012.63
2019-02-25T13:19:41.169Z,1012.79
2019-02-25T13:21:41.286Z,1012.78
2019-02-25T13:23:41.056Z,1012.63
2019-02-25T13:25:41.034Z,1012.66
2019-02-25T13:27:41.111Z,1012.56
2019-02-25T13:29:41.095Z,1012.46
2019-02-25T13:31:41.471Z,1012.23
2019-02-25T13:33:41.061Z,1012.53
2019-02-25T13:35:40.906Z,1012.63
2019-02-25T13:37:40.970Z,1012.20
2019-02-25T13:39:41.288Z,1011.97
2019-02-25T13:41:41.098Z,1012.32
2019-02-25T13:43:41.341Z,1011.90
2019-02-25T13:45:41.317Z,1012.04
2019-02-25T13:47:41.327Z,1012.06
2019-02-25T13:49:40.980Z,1012.15
2019-02-25T13:51:40.986Z,1011.97
2019-02-25T13:53:41.274Z,1011.84
2019-02-25T13:55:41.149Z,1011.97
2019-02-25T13:57:41.201Z,1011.86
2019-02-25T13:59:41.038Z,1011.75
2019-02-25T14:01:41.352Z,1011.79
2019-02-25T14:03:41.507Z,1012.08
2019-02-25T14:05:41.092Z,1011.77
2019-02-25T14:07:41.289Z,1011.82
2019-02-25T14:09:41.469Z,1011.41
2019-02-25T14:11:41.268Z,1011.66
2019-02-25T14:13:41.071Z,1011.62
2019-02-25T14:15:41.293Z,1011.64
2019-02-25T14:17:41.231Z,1011.90
2019-02-25T14:19:41.056Z,1011.72
2019-02-25T14:21:41.529Z,1011.70
2019-02-25T14:23:41.147Z,1011.41
2019-02-25T14:25:41.667Z,1011.56
2019-02-25T14:27:41.472Z,1011.27
2019-02-25T14:29:41.481Z,1011.50
2019-02-25T14:31:41.192Z,1011.36
2019-02-25T14:33:41.247Z,1011.33
2019-02-25T14:35:41.409Z,1011.36
2019-02-25T14:37:41.112Z,1011.52
2019-02-25T14:39:43.144Z,1011.30
2019-02-25T14:41:41.450Z,1011.20
2019-02-25T14:43:46.218Z,1011.30
2019-02-25T14:45:42.084Z,1011.30
2019-02-25T14:47:42.074Z,1011.67
2019-02-25T14:49:42.845Z,1011.13
2019-02-25T14:51:41.322Z,1011.16
2019-02-25T14:53:42.273Z,1011.07
2019-02-25T14:55:42.741Z,1011.30
2019-02-25T14:57:43.571Z,1011.20
2019-02-25T14:59:41.345Z,1011.25
2019-02-25T15:01:41.158Z,1011.04
2019-02-25T15:03:41.373Z,1011.31
2019-02-25T15:05:41.017Z,1011.37
2019-02-25T15:07:42.470Z,1011.25
2019-02-25T15:09:43.083Z,1011.48
2019-02-25T15:11:41.420Z,1011.08
2019-02-25T15:13:41.635Z,1011.10
2019-02-25T15:15:43.359Z,1011.25
2019-02-25T15:17:42.075Z,1011.35
2019-02-25T15:19:42.824Z,1011.40
2019-02-25T15:21:43.142Z,1011.29
2019-02-25T15:23:41.038Z,1011.15
2019-02-25T15:25:43.158Z,1010.91
2019-02-25T15:27:41.309Z,1011.20
2019-02-25T15:29:42.240Z,1011.24
2019-02-25T15:31:41.233Z,1011.12
2019-02-25T15:33:42.468Z,1011.09
2019-02-25T15:35:41.673Z,1011.19
2019-02-25T15:37:44.465Z,1011.06
2019-02-25T15:39:42.456Z,1011.32
2019-02-25T15:41:44.123Z,1011.05
2019-02-25T15:43:41.918Z,1010.96
2019-02-25T15:45:42.546Z,1011.24
2019-02-25T15:47:42.477Z,1011.34
2019-02-25T15:49:41.230Z,1011.24
2019-02-25T15:51:43.021Z,1011.04
2019-02-25T15:53:42.435Z,1011.17
2019-02-25T15:55:41.386Z,1011.09
2019-02-25T15:57:41.687Z,1011.06
2019-02-25T15:59:41.192Z,1010.89
2019-02-25T16:01:41.409Z,1011.21
2019-02-25T16:03:43.097Z,1010.80
2019-02-25T16:05:41.231Z,1011.27
2019-02-25T16:07:41.443Z,1011.05
2019-02-25T16:09:41.667Z,1011.28
2019-02-25T16:11:43.350Z,1011.21
2019-02-25T16:13:41.478Z,1011.08
2019-02-25T16:15:41.490Z,1010.90
2019-02-25T16:17:41.707Z,1010.77
2019-02-25T16:19:47.382Z,1011.17
2019-02-25T16:21:41.331Z,1010.98
2019-02-25T16:23:42.617Z,1011.23
2019-02-25T16:25:41.347Z,1011.14
2019-02-25T16:27:42.957Z,1010.86
2019-02-25T16:29:41.165Z,1010.97
2019-02-25T16:31:41.690Z,1010.95
2019-02-25T16:33:41.491Z,1010.90
2019-02-25T16:35:41.708Z,1011.27
2019-02-25T16:37:42.721Z,1011.13
2019-02-25T16:39:41.327Z,1011.12
2019-02-25T16:41:41.818Z,1010.92
2019-02-25T16:43:41.287Z,1011.22
2019-02-25T16:45:43.949Z,1010.89
2019-02-25T16:47:41.370Z,1010.98
2019-02-25T16:49:41.180Z,1011.30
2019-02-25T16:51:41.635Z,1011.04
2019-02-25T16:53:43.228Z,1011.24
2019-02-25T16:55:42.295Z,1011.18
2019-02-25T16:57:42.932Z,1011.03
2019-02-25T16:59:41.447Z,1010.97
2019-02-25T17:01:41.674Z,1011.02
2019-02-25T17:03:41.902Z,1011.27
2019-02-25T17:05:42.870Z,1010.84
2019-02-25T17:07:42.499Z,1011.28
2019-02-25T17:09:42.919Z,1011.17
2019-02-25T17:11:42.255Z,1011.18
2019-02-25T17:13:41.562Z,1011.25
2019-02-25T17:15:41.644Z,1011.04
2019-02-25T17:17:41.247Z,1011.17
2019-02-25T17:19:41.370Z,1011.25
2019-02-25T17:21:43.345Z,1011.58
2019-02-25T17:23:41.597Z,1011.24
2019-02-25T17:25:43.530Z,1011.30
2019-02-25T17:27:41.545Z,1011.08
2019-02-25T17:29:41.389Z,1011.16
2019-02-25T17:31:41.226Z,1011.68
2019-02-25T17:33:42.057Z,1011.31
2019-02-25T17:35:43.503Z,1011.40
2019-02-25T17:37:41.691Z,1011.57
2019-02-25T17:39:41.424Z,1011.41
2019-02-25T17:41:42.606Z,1011.23
2019-02-25T17:43:43.007Z,1011.47
2019-02-25T17:45:41.616Z,1011.63
2019-02-25T17:47:41.938Z,1011.42
2019-02-25T17:49:42.939Z,1011.63
2019-02-25T17:51:41.725Z,1011.47
2019-02-25T17:53:43.848Z,1011.43
2019-02-25T17:55:41.323Z,1011.61
2019-02-25T17:57:41.542Z,1011.59
2019-02-25T17:59:43.726Z,1011.27
2019-02-25T18:01:42.489Z,1011.76
2019-02-25T18:03:42.193Z,1011.41
2019-02-25T18:05:43.245Z,1011.24
2019-02-25T18:07:42.118Z,1011.56
2019-02-25T18:09:42.705Z,1011.66
2019-02-25T18:11:43.348Z,1011.48
2019-02-25T18:13:41.877Z,1011.44
2019-02-25T18:15:41.889Z,1011.75
2019-02-25T18:17:42.724Z,1011.50
2019-02-25T18:19:45.278Z,1011.44
2019-02-25T18:21:43.771Z,1011.45
2019-02-25T18:23:41.813Z,1011.46
2019-02-25T18:25:41.944Z,1011.63
2019-02-25T18:27:43.995Z,1011.58
2019-02-25T18:29:43.990Z,1011.75
2019-02-25T18:31:41.880Z,1011.83
2019-02-25T18:33:42.426Z,1011.59
2019-02-25T18:35:43.375Z,1011.71
2019-02-25T18:37:43.439Z,1011.43
2019-02-25T18:39:43.250Z,1011.82
2019-02-25T18:41:41.638Z,1011.39
2019-02-25T18:43:42.993Z,1011.77
2019-02-25T18:45:43.120Z,1011.63
2019-02-25T18:47:41.834Z,1011.47
2019-02-25T18:49:41.904Z,1011.57
2019-02-25T18:51:44.691Z,1011.64
2019-02-25T18:53:42.014Z,1011.63
2019-02-25T18:55:43.195Z,1011.78
2019-02-25T18:57:43.474Z,1011.73
2019-02-25T18:59:41.840Z,1011.42
2019-02-25T19:01:43.138Z,1011.46
2019-02-25T19:03:41.707Z,1011.51
2019-02-25T19:05:41.888Z,1011.58
2019-02-25T19:07:41.900Z,1011.43
2019-02-25T19:09:42.951Z,1011.58
2019-02-25T19:11:42.835Z,1011.76
2019-02-25T19:13:41.817Z,1011.50
2019-02-25T19:15:41.625Z,1011.34
2019-02-25T19:17:41.639Z,1011.95
2019-02-25T19:19:42.463Z,1011.34
2019-02-25T19:21:41.583Z,1011.45
2019-02-25T19:23:42.265Z,1011.58
2019-02-25T19:25:41.699Z,1011.45
2019-02-25T19:27:41.804Z,1011.98
2019-02-25T19:29:45.473Z,1011.42
2019-02-25T19:31:42.497Z,1011.34
2019-02-25T19:33:41.781Z,1011.71
2019-02-25T19:35:41.855Z,1011.81
2019-02-25T19:37:42.703Z,1011.59
2019-02-25T19:39:43.541Z,1011.50
2019-02-25T19:41:45.095Z,1011.34
2019-02-25T19:43:41.553Z,1011.68
2019-02-25T19:45:43.207Z,1011.53
2019-02-25T19:47:43.268Z,1011.66
2019-02-25T19:49:43.557Z,1011.87
2019-02-25T19:51:43.377Z,1011.95
2019-02-25T19:53:43.038Z,1011.56
2019-02-25T19:55:43.453Z,1011.58
2019-02-25T19:57:42.596Z,1011.49
2019-02-25T19:59:43.403Z,1011.64
2019-02-25T20:01:41.756Z,1011.72
2019-02-25T20:03:42.738Z,1011.56
2019-02-25T20:05:43.724Z,1011.50
2019-02-25T20:07:41.934Z,1011.45
2019-02-25T20:09:41.838Z,1011.42
2019-02-25T20:11:42.829Z,1011.54
2019-02-25T20:13:43.080Z,1011.43
2019-02-25T20:15:42.438Z,1011.75
2019-02-25T20:17:43.688Z,1011.50
2019-02-25T20:19:43.055Z,1011.40
2019-02-25T20:21:41.576Z,1011.54
2019-02-25T20:23:41.512Z,1011.53
2019-02-25T20:25:44.434Z,1011.32
2019-02-25T20:27:41.640Z,1011.42
2019-02-25T20:29:42.450Z,1011.96
2019-02-25T20:31:41.718Z,1011.78
2019-02-25T20:33:41.982Z,1011.76
2019-02-25T20:35:44.977Z,1011.51
2019-02-25T20:37:41.711Z,1011.34
2019-02-25T20:39:42.912Z,1011.76
2019-02-25T20:41:43.342Z,1011.46
2019-02-25T20:43:41.637Z,1011.55
2019-02-25T20:45:41.328Z,1011.58
2019-02-25T20:47:41.302Z,1011.59
2019-02-25T20:49:41.358Z,1011.82
2019-02-25T20:51:43.482Z,1011.38
2019-02-25T20:53:41.586Z,1011.35
2019-02-25T20:55:41.593Z,1011.40
2019-02-25T20:57:41.818Z,1011.37
2019-02-25T20:59:41.625Z,1011.43
2019-02-25T21:01:43.875Z,1011.45
2019-02-25T21:03:45.612Z,1011.54
2019-02-25T21:05:42.006Z,1011.41
2019-02-25T21:07:41.286Z,1011.76
2019-02-25T21:09:42.250Z,1011.25
2019-02-25T21:11:41.922Z,1011.09
2019-02-25T21:13:41.451Z,1011.59
2019-02-25T21:15:42.824Z,1011.01
2019-02-25T21:17:41.725Z,1011.18
2019-02-25T21:19:43.810Z,1010.95
2019-02-25T21:21:41.450Z,1011.31
2019-02-25T21:23:41.557Z,1010.77
2019-02-25T21:25:41.569Z,1011.22
2019-02-25T21:27:41.578Z,1011.00
2019-02-25T21:29:41.697Z,1010.96
2019-02-25T21:31:43.184Z,1011.36
2019-02-25T21:33:44.874Z,1010.88
2019-02-25T21:35:41.881Z,1011.19
2019-02-25T21:37:45.525Z,1010.82
2019-02-25T21:39:42.841Z,1011.11
2019-02-25T21:41:43.435Z,1011.10
2019-02-25T21:43:43.329Z,1011.04
2019-02-25T21:45:41.681Z,1010.99
2019-02-25T21:47:41.386Z,1011.17
2019-02-25T21:49:41.764Z,1011.21
2019-02-25T21:51:42.087Z,1010.94
2019-02-25T21:53:41.447Z,1011.11
2019-02-25T21:55:41.737Z,1010.62
2019-02-25T21:57:41.677Z,1010.82
2019-02-25T21:59:41.394Z,1010.98
2019-02-25T22:01:41.472Z,1010.98
2019-02-25T22:03:45.324Z,1011.09
2019-02-25T22:05:41.906Z,1010.76
2019-02-25T22:07:41.449Z,1011.01
2019-02-25T22:09:43.696Z,1011.08
2019-02-25T22:11:41.318Z,1011.10
2019-02-25T22:13:41.647Z,1010.90
2019-02-25T22:15:42.889Z,1010.83
2019-02-25T22:17:43.336Z,1011.13
2019-02-25T22:19:43.255Z,1010.95
2019-02-25T22:21:41.697Z,1010.90
2019-02-25T22:23:41.704Z,1010.99
2019-02-25T22:25:41.509Z,1011.01
2019-02-25T22:27:43.306Z,1010.77
2019-02-25T22:29:43.031Z,1010.95
2019-02-25T22:31:42.410Z,1011.21
2019-02-25T22:33:41.452Z,1011.07
2019-02-25T22:35:47.040Z,1010.84
2019-02-25T22:37:44.360Z,1010.94
2019-02-25T22:39:41.566Z,1011.14
2019-02-25T22:41:44.311Z,1010.92
2019-02-25T22:43:43.599Z,1011.29
2019-02-25T22:45:42.101Z,1010.92
2019-02-25T22:47:41.639Z,1010.86
2019-02-25T22:49:41.670Z,1010.97
2019-02-25T22:51:41.769Z,1011.25
2019-02-25T22:53:41.778Z,1010.74
2019-02-25T22:55:42.612Z,1011.15
2019-02-25T22:57:43.326Z,1011.06
2019-02-25T22:59:41.607Z,1011.22
2019-02-25T23:01:41.818Z,1010.96
2019-02-25T23:03:43.276Z,1011.01
2019-02-25T23:05:43.132Z,1010.83
2019-02-25T23:07:44.134Z,1011.06
2019-02-25T23:09:43.111Z,1011.30
2019-02-25T23:11:42.125Z,1010.84
2019-02-25T23:13:43.209Z,1011.13
2019-02-25T23:15:44.158Z,1010.90
2019-02-25T23:17:42.884Z,1011.23
2019-02-25T23:19:43.076Z,1011.08
2019-02-25T23:21:41.695Z,1010.98
2019-02-25T23:23:41.545Z,1010.98
2019-02-25T23:25:41.702Z,1011.16
2019-02-25T23:27:41.775Z,1011.00
2019-02-25T23:29:41.781Z,1011.20
2019-02-25T23:31:45.769Z,1011.35
2019-02-25T23:33:42.261Z,1010.86
2019-02-25T23:35:44.651Z,1011.15
2019-02-25T23:37:45.115Z,1011.03
2019-02-25T23:39:43.261Z,1011.07
2019-02-25T23:41:43.878Z,1010.99
2019-02-25T23:43:42.393Z,1011.31
2019-02-25T23:45:42.099Z,1011.14
2019-02-25T23:47:41.798Z,1011.51
2019-02-25T23:49:43.429Z,1011.05
2019-02-25T23:51:43.634Z,1011.14
2019-02-25T23:53:42.126Z,1011.44
2019-02-25T23:55:45.099Z,1010.95
2019-02-25T23:57:41.838Z,1011.04
2019-02-25T23:59:42.706Z,1011.15
